createdAt,value
2022-09-02T00:00:14.075Z,26.93
2022-09-02T00:01:20.459Z,26.94
2022-09-02T00:02:22.844Z,26.94
2022-09-02T00:04:38.214Z,27.03
2022-09-02T00:05:41.041Z,26.93
2022-09-02T00:06:44.861Z,26.94
2022-09-02T00:07:47.176Z,26.92
2022-09-02T00:08:49.438Z,26.92
2022-09-02T00:09:51.604Z,26.92
2022-09-02T00:10:54.501Z,26.91
2022-09-02T00:11:56.951Z,26.91
2022-09-02T00:12:59.192Z,26.93
2022-09-02T00:14:04.293Z,26.93
2022-09-02T00:15:07.989Z,26.94
2022-09-02T00:16:10.724Z,26.94
2022-09-02T00:17:14.108Z,26.94
2022-09-02T00:18:18.123Z,26.95
2022-09-02T00:19:23.154Z,26.96
2022-09-02T00:20:29.086Z,26.95
2022-09-02T00:21:31.795Z,26.94
2022-09-02T00:22:34.150Z,26.95
2022-09-02T00:23:36.991Z,26.95
2022-09-02T00:24:39.181Z,26.95
2022-09-02T00:25:41.815Z,26.94
2022-09-02T00:26:45.542Z,26.95
2022-09-02T00:27:49.044Z,26.95
2022-09-02T00:28:55.918Z,26.95
2022-09-02T00:29:56.448Z,26.95
2022-09-02T00:30:58.980Z,26.95
2022-09-02T00:32:01.380Z,26.96
2022-09-02T00:33:04.849Z,26.96
2022-09-02T00:34:07.071Z,26.96
2022-09-02T00:35:09.744Z,26.96
2022-09-02T00:36:12.690Z,26.95
2022-09-02T00:37:15.231Z,26.95
2022-09-02T00:38:17.476Z,26.96
2022-09-02T00:39:20.197Z,26.95
2022-09-02T00:40:24.307Z,26.95
2022-09-02T00:41:28.045Z,26.97
2022-09-02T00:42:30.504Z,26.96
2022-09-02T00:43:46.367Z,26.96
2022-09-02T00:44:49.947Z,26.94
2022-09-02T00:45:52.303Z,26.94
2022-09-02T00:46:55.596Z,26.95
2022-09-02T00:47:59.095Z,26.94
2022-09-02T00:49:14.102Z,26.94
2022-09-02T00:50:22.600Z,26.92
2022-09-02T00:51:26.070Z,26.91
2022-09-02T00:52:32.016Z,26.92
2022-09-02T00:53:34.696Z,26.91
2022-09-02T00:54:40.752Z,26.89
2022-09-02T00:55:45.642Z,26.88
2022-09-02T00:56:48.689Z,26.87
2022-09-02T00:59:39.898Z,26.97
2022-09-02T01:01:56.971Z,26.95
2022-09-02T01:03:01.355Z,26.84
2022-09-02T01:04:03.764Z,26.83
2022-09-02T01:05:08.696Z,26.84
2022-09-02T01:06:15.065Z,26.83
2022-09-02T01:07:18.732Z,26.84
2022-09-02T01:08:24.061Z,26.84
2022-09-02T01:09:26.859Z,26.84
2022-09-02T01:10:30.631Z,26.84
2022-09-02T01:12:58.032Z,26.97
2022-09-02T01:14:00.574Z,26.86
2022-09-02T01:15:04.395Z,26.85
2022-09-02T01:16:24.336Z,26.85
2022-09-02T01:17:28.310Z,26.84
2022-09-02T01:18:30.458Z,26.84
2022-09-02T01:19:34.924Z,26.84
2022-09-02T01:20:37.658Z,26.84
2022-09-02T01:21:44.943Z,26.84
2022-09-02T01:22:48.287Z,26.84
2022-09-02T01:23:50.852Z,26.84
2022-09-02T01:24:54.438Z,26.83
2022-09-02T01:25:56.913Z,26.83
2022-09-02T01:26:59.917Z,26.83
2022-09-02T01:28:14.557Z,26.82
2022-09-02T01:29:16.965Z,26.83
2022-09-02T01:30:22.970Z,26.83
2022-09-02T01:31:25.553Z,26.83
2022-09-02T01:32:29.142Z,26.82
2022-09-02T01:33:31.802Z,26.81
2022-09-02T01:34:34.179Z,26.81
2022-09-02T01:35:36.528Z,26.82
2022-09-02T01:36:39.463Z,26.82
2022-09-02T01:37:42.854Z,26.82
2022-09-02T01:38:47.824Z,26.81
2022-09-02T01:39:50.465Z,26.82
2022-09-02T01:40:53.488Z,26.82
2022-09-02T01:41:56.091Z,26.82
2022-09-02T01:43:06.741Z,26.83
2022-09-02T01:44:10.134Z,26.84
2022-09-02T01:45:12.399Z,26.84
2022-09-02T01:46:15.981Z,26.85
2022-09-02T01:47:20.916Z,26.86
2022-09-02T01:48:23.629Z,26.85
2022-09-02T01:49:26.526Z,26.85
2022-09-02T01:50:31.133Z,26.87
2022-09-02T01:51:33.736Z,26.87
2022-09-02T01:52:37.690Z,26.87
2022-09-02T01:53:39.920Z,26.86
2022-09-02T01:54:42.252Z,26.88
2022-09-02T01:55:45.040Z,26.86
2022-09-02T01:56:47.445Z,26.87
2022-09-02T01:57:50.762Z,26.88
2022-09-02T01:58:54.988Z,26.87
2022-09-02T01:59:57.925Z,26.87
2022-09-02T02:01:01.224Z,26.88
2022-09-02T02:02:06.337Z,26.88
2022-09-02T02:03:09.396Z,26.88
2022-09-02T02:04:13.582Z,26.87
2022-09-02T02:05:17.214Z,26.87
2022-09-02T02:06:20.376Z,26.87
2022-09-02T02:07:23.200Z,26.86
2022-09-02T02:08:26.013Z,26.84
2022-09-02T02:09:29.742Z,26.81
2022-09-02T02:10:32.242Z,26.77
2022-09-02T02:11:35.693Z,26.74
2022-09-02T02:12:38.411Z,26.65
2022-09-02T02:13:42.367Z,26.65
2022-09-02T02:14:45.413Z,26.64
2022-09-02T02:15:48.699Z,26.60
2022-09-02T02:16:52.184Z,26.56
2022-09-02T02:17:54.311Z,26.54
2022-09-02T02:18:56.862Z,26.52
2022-09-02T02:19:59.211Z,26.53
2022-09-02T02:21:01.768Z,26.54
2022-09-02T02:22:04.004Z,26.54
2022-09-02T02:23:06.599Z,26.55
2022-09-02T02:24:09.176Z,26.56
2022-09-02T02:25:11.618Z,26.57
2022-09-02T02:26:15.280Z,26.57
2022-09-02T02:27:17.672Z,26.55
2022-09-02T02:28:20.332Z,26.55
2022-09-02T02:29:23.042Z,26.55
2022-09-02T02:30:27.040Z,26.55
2022-09-02T02:31:29.579Z,26.55
2022-09-02T02:32:32.089Z,26.55
2022-09-02T02:33:36.035Z,26.56
2022-09-02T02:34:39.016Z,26.55
2022-09-02T02:35:42.245Z,26.57
2022-09-02T02:36:45.051Z,26.58
2022-09-02T02:37:47.974Z,26.60
2022-09-02T02:38:50.683Z,26.62
2022-09-02T02:39:52.847Z,26.62
2022-09-02T02:40:55.878Z,26.64
2022-09-02T02:42:00.129Z,26.63
2022-09-02T02:43:02.375Z,26.63
2022-09-02T02:44:05.826Z,26.62
2022-09-02T02:45:14.894Z,26.61
2022-09-02T02:46:16.056Z,26.61
2022-09-02T02:47:18.375Z,26.62
2022-09-02T02:48:21.762Z,26.63
2022-09-02T02:49:24.738Z,26.63
2022-09-02T02:50:27.344Z,26.64
2022-09-02T02:51:29.691Z,26.65
2022-09-02T02:52:32.055Z,26.63
2022-09-02T02:53:35.633Z,26.64
2022-09-02T02:54:38.544Z,26.63
2022-09-02T02:55:41.197Z,26.64
2022-09-02T02:56:43.568Z,26.62
2022-09-02T02:57:46.201Z,26.60
2022-09-02T02:58:48.511Z,26.58
2022-09-02T02:59:50.746Z,26.56
2022-09-02T03:00:53.084Z,26.53
2022-09-02T03:01:55.872Z,26.53
2022-09-02T03:03:03.905Z,26.52
2022-09-02T03:04:06.265Z,26.50
2022-09-02T03:05:10.116Z,26.51
2022-09-02T03:06:12.740Z,26.50
2022-09-02T03:07:14.966Z,26.52
2022-09-02T03:08:17.671Z,26.53
2022-09-02T03:09:21.451Z,26.55
2022-09-02T03:10:25.674Z,26.55
2022-09-02T03:11:28.994Z,26.57
2022-09-02T03:12:31.584Z,26.58
2022-09-02T03:13:35.289Z,26.60
2022-09-02T03:14:38.810Z,26.60
2022-09-02T03:15:42.070Z,26.60
2022-09-02T03:16:44.862Z,26.58
2022-09-02T03:17:47.412Z,26.56
2022-09-02T03:18:49.860Z,26.53
2022-09-02T03:19:52.086Z,26.48
2022-09-02T03:20:54.640Z,26.46
2022-09-02T03:21:56.975Z,26.43
2022-09-02T03:22:59.429Z,26.40
2022-09-02T03:24:03.421Z,26.37
2022-09-02T03:25:06.727Z,26.35
2022-09-02T03:26:11.067Z,26.32
2022-09-02T03:27:13.467Z,26.30
2022-09-02T03:28:16.437Z,26.29
2022-09-02T03:29:18.858Z,26.29
2022-09-02T03:30:24.085Z,26.28
2022-09-02T03:31:26.887Z,26.27
2022-09-02T03:32:30.590Z,26.27
2022-09-02T03:33:34.528Z,26.27
2022-09-02T03:34:39.500Z,26.26
2022-09-02T03:35:42.718Z,26.20
2022-09-02T03:36:47.342Z,26.20
2022-09-02T03:37:50.270Z,26.27
2022-09-02T03:38:53.280Z,26.28
2022-09-02T03:39:56.838Z,26.28
2022-09-02T03:40:59.370Z,26.29
2022-09-02T03:42:01.924Z,26.28
2022-09-02T03:43:06.077Z,26.26
2022-09-02T03:44:08.816Z,26.24
2022-09-02T03:45:13.185Z,26.21
2022-09-02T03:46:17.140Z,26.20
2022-09-02T03:47:20.710Z,26.19
2022-09-02T03:48:23.996Z,26.17
2022-09-02T03:49:26.502Z,26.15
2022-09-02T03:50:31.109Z,26.14
2022-09-02T03:51:33.508Z,26.12
2022-09-02T03:52:36.962Z,26.11
2022-09-02T03:53:39.217Z,26.09
2022-09-02T03:54:42.197Z,26.06
2022-09-02T03:55:44.881Z,26.05
2022-09-02T03:56:47.949Z,26.04
2022-09-02T03:57:50.410Z,26.05
2022-09-02T03:58:52.865Z,26.03
2022-09-02T03:59:56.958Z,26.02
2022-09-02T04:00:59.511Z,25.94
2022-09-02T04:02:02.289Z,25.94
2022-09-02T04:03:05.133Z,25.96
2022-09-02T04:04:08.827Z,25.92
2022-09-02T04:05:15.846Z,25.90
2022-09-02T04:06:18.140Z,25.87
2022-09-02T04:07:20.874Z,25.85
2022-09-02T04:08:24.082Z,25.84
2022-09-02T04:09:27.121Z,25.83
2022-09-02T04:10:30.656Z,25.82
2022-09-02T04:11:33.151Z,25.83
2022-09-02T04:12:35.969Z,25.83
2022-09-02T04:13:39.281Z,25.83
2022-09-02T04:14:42.172Z,25.83
2022-09-02T04:15:45.627Z,25.83
2022-09-02T04:16:48.475Z,25.84
2022-09-02T04:17:51.028Z,25.82
2022-09-02T04:18:55.516Z,25.82
2022-09-02T04:19:58.985Z,25.83
2022-09-02T04:21:01.732Z,25.85
2022-09-02T04:22:03.952Z,25.86
2022-09-02T04:23:07.060Z,25.88
2022-09-02T04:24:10.154Z,25.89
2022-09-02T04:25:14.799Z,25.88
2022-09-02T04:26:18.897Z,25.87
2022-09-02T04:27:21.241Z,25.86
2022-09-02T04:28:24.853Z,25.86
2022-09-02T04:29:28.252Z,25.85
2022-09-02T04:30:32.054Z,25.85
2022-09-02T04:31:34.341Z,25.83
2022-09-02T04:32:40.617Z,25.84
2022-09-02T04:33:42.562Z,25.86
2022-09-02T04:34:47.313Z,25.86
2022-09-02T04:35:52.318Z,25.85
2022-09-02T04:36:55.317Z,25.84
2022-09-02T04:37:57.685Z,25.84
2022-09-02T04:39:00.170Z,25.78
2022-09-02T04:40:05.804Z,25.78
2022-09-02T04:41:09.744Z,25.84
2022-09-02T04:42:12.373Z,25.85
2022-09-02T04:43:15.529Z,25.85
2022-09-02T04:44:18.783Z,25.84
2022-09-02T04:45:25.569Z,25.83
2022-09-02T04:46:34.328Z,25.83
2022-09-02T04:47:33.233Z,25.84
2022-09-02T04:48:37.481Z,25.85
2022-09-02T04:49:41.790Z,25.86
2022-09-02T04:50:44.380Z,25.86
2022-09-02T04:51:48.808Z,25.87
2022-09-02T04:52:51.977Z,25.89
2022-09-02T04:53:56.220Z,25.89
2022-09-02T04:54:59.741Z,25.92
2022-09-02T04:56:07.952Z,25.90
2022-09-02T04:57:10.746Z,25.89
2022-09-02T04:58:14.161Z,25.87
2022-09-02T04:59:19.247Z,25.85
2022-09-02T05:00:23.723Z,25.87
2022-09-02T05:01:28.143Z,25.88
2022-09-02T05:02:31.209Z,25.87
2022-09-02T05:03:33.784Z,25.87
2022-09-02T05:04:36.456Z,25.86
2022-09-02T05:05:39.019Z,25.87
2022-09-02T05:06:44.491Z,25.85
2022-09-02T05:07:48.684Z,25.85
2022-09-02T05:08:52.221Z,25.86
2022-09-02T05:09:57.090Z,25.85
2022-09-02T05:10:59.829Z,25.85
2022-09-02T05:12:04.285Z,25.83
2022-09-02T05:13:12.164Z,25.83
2022-09-02T05:14:15.110Z,25.83
2022-09-02T05:15:17.982Z,25.84
2022-09-02T05:16:23.736Z,25.86
2022-09-02T05:18:39.540Z,26.00
2022-09-02T05:19:41.776Z,25.87
2022-09-02T05:20:44.573Z,25.87
2022-09-02T05:21:47.821Z,25.86
2022-09-02T05:22:52.168Z,25.88
2022-09-02T05:23:54.660Z,25.88
2022-09-02T05:24:59.126Z,25.88
2022-09-02T05:26:05.124Z,25.88
2022-09-02T05:27:11.009Z,25.89
2022-09-02T05:28:13.605Z,25.90
2022-09-02T05:29:16.752Z,25.90
2022-09-02T05:30:20.866Z,25.90
2022-09-02T05:31:24.339Z,25.87
2022-09-02T05:32:26.803Z,25.84
2022-09-02T05:33:29.038Z,25.79
2022-09-02T05:34:31.399Z,25.72
2022-09-02T05:35:34.278Z,25.68
2022-09-02T05:36:40.339Z,25.64
2022-09-02T05:37:43.393Z,25.63
2022-09-02T05:38:46.705Z,25.63
2022-09-02T05:39:49.082Z,25.60
2022-09-02T05:40:53.725Z,25.58
2022-09-02T05:41:56.350Z,25.54
2022-09-02T05:42:59.423Z,25.49
2022-09-02T05:44:04.499Z,25.46
2022-09-02T05:45:09.365Z,25.43
2022-09-02T05:46:13.874Z,25.33
2022-09-02T05:47:16.548Z,25.27
2022-09-02T05:48:19.955Z,25.25
2022-09-02T05:49:22.339Z,25.25
2022-09-02T05:50:27.960Z,25.21
2022-09-02T05:51:48.985Z,25.19
2022-09-02T05:52:53.085Z,25.17
2022-09-02T05:53:57.141Z,25.17
2022-09-02T05:55:00.534Z,25.18
2022-09-02T05:56:04.629Z,25.19
2022-09-02T05:58:21.508Z,25.29
2022-09-02T05:59:24.932Z,25.17
2022-09-02T06:00:27.396Z,25.16
2022-09-02T06:01:31.997Z,25.17
2022-09-02T06:02:36.175Z,25.18
2022-09-02T06:03:39.503Z,25.17
2022-09-02T06:04:44.901Z,25.17
2022-09-02T06:07:07.496Z,25.23
2022-09-02T06:08:11.979Z,25.14
2022-09-02T06:09:16.296Z,25.14
2022-09-02T06:10:19.032Z,25.14
2022-09-02T06:11:21.933Z,25.19
2022-09-02T06:12:24.265Z,25.22
2022-09-02T06:13:30.418Z,25.26
2022-09-02T06:14:33.101Z,25.30
2022-09-02T06:15:38.947Z,25.32
2022-09-02T06:16:41.499Z,25.31
2022-09-02T06:17:46.147Z,25.29
2022-09-02T06:18:49.547Z,25.27
2022-09-02T06:19:53.258Z,25.26
2022-09-02T06:20:57.866Z,25.25
2022-09-02T06:22:02.865Z,25.27
2022-09-02T06:23:07.454Z,25.28
2022-09-02T06:24:11.803Z,25.21
2022-09-02T06:25:14.923Z,25.16
2022-09-02T06:26:18.230Z,25.10
2022-09-02T06:27:20.782Z,24.97
2022-09-02T06:28:25.964Z,24.87
2022-09-02T06:29:28.284Z,24.82
2022-09-02T06:30:32.931Z,24.80
2022-09-02T06:31:36.556Z,24.78
2022-09-02T06:32:39.452Z,24.78
2022-09-02T06:33:44.255Z,24.79
2022-09-02T06:34:48.579Z,24.82
2022-09-02T06:35:51.088Z,24.83
2022-09-02T06:36:54.327Z,24.80
2022-09-02T06:37:58.555Z,24.76
2022-09-02T06:39:00.976Z,24.70
2022-09-02T06:40:05.310Z,24.66
2022-09-02T06:41:07.832Z,24.59
2022-09-02T06:42:12.215Z,24.49
2022-09-02T06:43:16.305Z,24.45
2022-09-02T06:44:30.073Z,24.43
2022-09-02T06:45:38.040Z,24.42
2022-09-02T06:46:44.955Z,24.41
2022-09-02T06:47:47.889Z,24.38
2022-09-02T06:48:51.607Z,24.33
2022-09-02T06:49:55.251Z,24.32
2022-09-02T06:50:57.770Z,24.31
2022-09-02T06:52:02.353Z,24.33
2022-09-02T06:53:06.635Z,24.37
2022-09-02T06:54:14.260Z,24.39
2022-09-02T06:55:16.947Z,24.40
2022-09-02T06:56:21.331Z,24.45
2022-09-02T06:57:24.710Z,24.54
2022-09-02T06:58:29.346Z,24.64
2022-09-02T06:59:31.684Z,24.75
2022-09-02T07:00:34.582Z,24.83
2022-09-02T07:01:37.011Z,24.94
2022-09-02T07:02:39.550Z,25.02
2022-09-02T07:03:43.401Z,25.10
2022-09-02T07:04:45.854Z,25.18
2022-09-02T07:06:08.298Z,25.25
2022-09-02T07:07:12.224Z,25.33
2022-09-02T07:08:16.717Z,25.42
2022-09-02T07:09:20.899Z,25.47
2022-09-02T07:10:25.333Z,25.52
2022-09-02T07:11:28.292Z,25.59
2022-09-02T07:12:33.420Z,25.63
2022-09-02T07:13:37.569Z,25.69
2022-09-02T07:14:42.258Z,25.75
2022-09-02T07:15:46.073Z,25.79
2022-09-02T07:16:50.665Z,25.88
2022-09-02T07:17:53.607Z,25.88
2022-09-02T07:18:57.852Z,25.93
2022-09-02T07:20:00.581Z,25.96
2022-09-02T07:21:05.290Z,25.99
2022-09-02T07:22:08.850Z,26.03
2022-09-02T07:23:15.479Z,26.06
2022-09-02T07:24:20.085Z,26.11
2022-09-02T07:25:28.659Z,26.14
2022-09-02T07:26:33.155Z,26.18
2022-09-02T07:27:37.634Z,26.21
2022-09-02T07:28:40.077Z,26.24
2022-09-02T07:29:42.628Z,26.28
2022-09-02T07:30:46.161Z,26.31
2022-09-02T07:31:52.068Z,26.34
2022-09-02T07:32:55.078Z,26.37
2022-09-02T07:34:00.263Z,26.40
2022-09-02T07:35:04.623Z,26.43
2022-09-02T07:36:10.978Z,26.46
2022-09-02T07:37:12.586Z,26.50
2022-09-02T07:38:16.060Z,26.50
2022-09-02T07:39:18.680Z,26.52
2022-09-02T07:40:22.019Z,26.53
2022-09-02T07:41:25.189Z,26.56
2022-09-02T07:43:30.714Z,26.59
2022-09-02T07:44:33.221Z,26.61
2022-09-02T07:45:36.137Z,26.59
2022-09-02T07:46:39.205Z,26.49
2022-09-02T07:47:42.789Z,26.37
2022-09-02T07:48:45.387Z,26.27
2022-09-02T07:50:53.251Z,26.13
2022-09-02T07:51:56.490Z,26.00
2022-09-02T07:53:00.471Z,26.00
2022-09-02T07:54:04.908Z,25.95
2022-09-02T07:55:12.620Z,25.91
2022-09-02T07:56:14.288Z,25.88
2022-09-02T07:57:16.724Z,25.86
2022-09-02T07:58:20.195Z,25.85
2022-09-02T07:59:22.993Z,25.83
2022-09-02T08:00:28.959Z,25.84
2022-09-02T08:01:33.388Z,25.85
2022-09-02T08:02:37.232Z,25.85
2022-09-02T08:03:41.852Z,25.83
2022-09-02T08:04:45.832Z,25.80
2022-09-02T08:05:48.379Z,25.78
2022-09-02T08:06:53.193Z,25.71
2022-09-02T08:07:55.696Z,25.72
2022-09-02T08:08:58.524Z,25.77
2022-09-02T08:10:03.185Z,25.79
2022-09-02T08:11:08.044Z,25.81
2022-09-02T08:12:10.625Z,25.84
2022-09-02T08:13:13.180Z,25.87
2022-09-02T08:14:22.907Z,25.92
2022-09-02T08:15:27.819Z,25.95
2022-09-02T08:16:33.090Z,26.00
2022-09-02T08:17:36.457Z,26.03
2022-09-02T08:18:38.875Z,26.06
2022-09-02T08:19:41.536Z,26.06
2022-09-02T08:20:45.237Z,26.06
2022-09-02T08:21:47.634Z,26.08
2022-09-02T08:22:55.984Z,26.05
2022-09-02T08:23:53.859Z,26.00
2022-09-02T08:24:57.061Z,25.99
2022-09-02T08:26:00.239Z,26.01
2022-09-02T08:27:03.083Z,26.02
2022-09-02T08:28:05.278Z,26.00
2022-09-02T08:29:07.737Z,25.99
2022-09-02T08:30:12.049Z,25.95
2022-09-02T08:31:14.764Z,25.92
2022-09-02T08:32:17.271Z,25.92
2022-09-02T08:33:20.172Z,25.91
2022-09-02T08:34:22.774Z,25.90
2022-09-02T08:35:25.148Z,25.92
2022-09-02T08:36:30.736Z,25.94
2022-09-02T08:37:33.473Z,25.95
2022-09-02T08:38:37.515Z,25.94
2022-09-02T08:39:40.252Z,25.94
2022-09-02T08:40:43.262Z,25.83
2022-09-02T08:41:52.287Z,25.73
2022-09-02T08:42:56.168Z,25.65
2022-09-02T08:43:59.830Z,25.51
2022-09-02T08:45:24.265Z,25.37
2022-09-02T08:46:27.615Z,25.33
2022-09-02T08:47:29.926Z,25.22
2022-09-02T08:48:48.708Z,25.10
2022-09-02T08:49:52.600Z,25.03
2022-09-02T08:50:58.092Z,24.96
2022-09-02T08:52:01.926Z,24.86
2022-09-02T08:53:28.930Z,24.81
2022-09-02T08:55:59.279Z,24.59
2022-09-02T08:57:02.038Z,24.44
2022-09-02T08:59:07.451Z,24.23
2022-09-02T09:00:11.657Z,24.10
2022-09-02T09:01:23.753Z,23.97
2022-09-02T09:02:29.925Z,23.93
2022-09-02T09:03:51.468Z,23.90
2022-09-02T09:05:26.451Z,23.85
2022-09-02T09:06:35.592Z,23.85
2022-09-02T09:07:47.300Z,23.82
2022-09-02T09:10:26.627Z,23.79
2022-09-02T09:11:35.382Z,23.61
2022-09-02T09:12:53.590Z,23.52
2022-09-02T09:14:00.025Z,23.54
2022-09-02T09:15:14.907Z,23.61
2022-09-02T09:17:56.574Z,23.66
2022-09-02T09:19:18.798Z,23.45
2022-09-02T09:20:24.296Z,23.38
2022-09-02T09:21:27.048Z,23.29
2022-09-02T09:24:08.750Z,23.36
2022-09-02T09:25:12.794Z,23.27
2022-09-02T09:26:20.584Z,23.21
2022-09-02T09:27:23.349Z,23.19
2022-09-02T09:28:25.923Z,23.21
2022-09-02T09:30:44.386Z,23.36
2022-09-02T09:31:51.296Z,23.28
2022-09-02T09:32:55.950Z,23.25
2022-09-02T09:34:03.843Z,23.23
2022-09-02T09:35:08.460Z,23.17
2022-09-02T09:36:13.602Z,23.10
2022-09-02T09:37:39.944Z,23.00
2022-09-02T09:38:42.585Z,22.95
2022-09-02T09:39:44.747Z,22.91
2022-09-02T09:40:47.782Z,22.91
2022-09-02T09:43:14.917Z,23.16
2022-09-02T09:44:38.364Z,23.06
2022-09-02T09:45:44.755Z,23.01
2022-09-02T09:46:47.384Z,23.08
2022-09-02T09:48:18.879Z,23.20
2022-09-02T09:49:28.258Z,23.33
2022-09-02T09:50:31.021Z,23.52
2022-09-02T09:51:50.319Z,23.66
2022-09-02T09:52:39.700Z,23.78
2022-09-02T09:53:42.618Z,23.88
2022-09-02T09:54:44.799Z,23.99
2022-09-02T09:56:04.564Z,24.08
2022-09-02T09:57:21.422Z,24.17
2022-09-02T09:58:42.419Z,24.28
2022-09-02T09:59:46.401Z,24.39
2022-09-02T10:00:51.041Z,24.47
2022-09-02T10:01:53.319Z,24.53
2022-09-02T10:02:57.539Z,24.60
2022-09-02T10:04:41.642Z,24.66
2022-09-02T10:05:27.004Z,24.72
2022-09-02T10:06:34.734Z,24.79
2022-09-02T10:07:45.142Z,24.85
2022-09-02T10:08:52.417Z,24.92
2022-09-02T10:09:58.095Z,24.97
2022-09-02T10:11:02.196Z,25.02
2022-09-02T10:13:25.429Z,25.20
2022-09-02T10:14:36.788Z,25.13
2022-09-02T10:15:43.225Z,25.15
2022-09-02T10:17:13.666Z,25.18
2022-09-02T10:18:34.585Z,25.21
2022-09-02T10:19:56.060Z,25.24
2022-09-02T10:22:48.540Z,25.38
2022-09-02T10:23:53.698Z,25.29
2022-09-02T10:25:31.703Z,25.30
2022-09-02T10:26:44.786Z,25.31
2022-09-02T10:28:00.158Z,25.32
2022-09-02T10:29:15.388Z,25.33
2022-09-02T10:30:20.200Z,25.34
2022-09-02T10:31:27.573Z,25.35
2022-09-02T10:32:44.026Z,25.34
2022-09-02T10:34:19.841Z,25.35
2022-09-02T10:35:29.058Z,25.36
2022-09-02T10:38:09.986Z,25.47
2022-09-02T10:39:32.761Z,25.38
2022-09-02T10:40:44.357Z,25.39
2022-09-02T10:41:47.420Z,25.39
2022-09-02T10:43:03.040Z,25.40
2022-09-02T10:44:22.045Z,25.41
2022-09-02T10:47:02.186Z,25.54
2022-09-02T10:48:21.727Z,25.45
2022-09-02T10:49:50.586Z,25.46
2022-09-02T10:51:23.551Z,25.47
2022-09-02T10:52:37.176Z,25.50
2022-09-02T10:55:21.979Z,25.63
2022-09-02T10:56:32.474Z,25.53
2022-09-02T10:57:56.783Z,25.53
2022-09-02T10:59:05.490Z,25.53
2022-09-02T11:00:19.866Z,25.55
2022-09-02T11:01:34.746Z,25.58
2022-09-02T11:02:40.584Z,25.59
2022-09-02T11:03:59.814Z,25.60
2022-09-02T11:05:05.689Z,25.62
2022-09-02T11:07:36.276Z,25.76
2022-09-02T11:08:40.857Z,25.67
2022-09-02T11:09:47.116Z,25.67
2022-09-02T11:11:05.575Z,25.68
2022-09-02T11:12:18.179Z,25.70
2022-09-02T11:13:48.739Z,25.73
2022-09-02T11:14:54.714Z,25.74
2022-09-02T11:17:39.655Z,25.88
2022-09-02T11:18:48.392Z,25.78
2022-09-02T11:20:13.865Z,25.79
2022-09-02T11:21:32.642Z,25.81
2022-09-02T11:22:54.838Z,25.81
2022-09-02T11:24:06.870Z,25.82
2022-09-02T11:25:19.390Z,25.82
2022-09-02T11:26:41.387Z,25.81
2022-09-02T11:27:50.074Z,25.83
2022-09-02T11:29:16.156Z,25.83
2022-09-02T11:30:21.815Z,25.83
2022-09-02T11:31:38.870Z,25.83
2022-09-02T11:32:58.274Z,25.83
2022-09-02T11:34:07.435Z,25.83
2022-09-02T11:35:12.820Z,25.85
2022-09-02T11:36:17.121Z,25.84
2022-09-02T11:37:27.083Z,25.86
2022-09-02T11:38:35.515Z,25.86
2022-09-02T11:40:02.323Z,25.87
2022-09-02T11:43:32.032Z,26.02
2022-09-02T11:44:53.252Z,25.93
2022-09-02T11:46:20.997Z,25.93
2022-09-02T11:47:36.288Z,25.94
2022-09-02T11:49:06.943Z,25.95
2022-09-02T11:50:39.205Z,25.95
2022-09-02T11:51:49.246Z,25.95
2022-09-02T11:53:17.623Z,25.94
2022-09-02T11:54:20.300Z,25.93
2022-09-02T11:55:40.777Z,25.91
2022-09-02T11:56:45.353Z,25.89
2022-09-02T11:57:56.835Z,25.88
2022-09-02T11:58:59.747Z,25.88
2022-09-02T12:00:05.282Z,25.88
2022-09-02T12:01:24.428Z,25.89
2022-09-02T12:02:43.751Z,25.90
2022-09-02T12:04:16.139Z,25.92
2022-09-02T12:05:00.286Z,25.93
2022-09-02T12:06:12.082Z,25.93
2022-09-02T12:07:19.356Z,25.95
2022-09-02T12:08:31.699Z,25.95
2022-09-02T12:09:45.595Z,25.96
2022-09-02T12:10:54.715Z,25.98
2022-09-02T12:11:57.031Z,25.98
2022-09-02T12:13:02.581Z,25.99
2022-09-02T12:14:27.006Z,26.01
2022-09-02T12:15:32.212Z,26.02
2022-09-02T12:16:37.785Z,26.03
2022-09-02T12:17:44.331Z,26.03
2022-09-02T12:18:56.571Z,26.04
2022-09-02T12:19:59.807Z,26.05
2022-09-02T12:21:05.182Z,26.06
2022-09-02T12:22:19.764Z,26.06
2022-09-02T12:23:49.696Z,26.06
2022-09-02T12:24:53.100Z,26.08
2022-09-02T12:26:01.780Z,26.10
2022-09-02T12:27:06.125Z,26.09
2022-09-02T12:28:23.935Z,26.10
2022-09-02T12:29:22.993Z,26.10
2022-09-02T12:30:46.229Z,26.11
2022-09-02T12:31:49.390Z,26.12
2022-09-02T12:33:01.245Z,26.12
2022-09-02T12:34:03.984Z,26.12
2022-09-02T12:35:08.872Z,26.13
2022-09-02T12:37:56.187Z,26.26
2022-09-02T12:39:25.026Z,26.14
2022-09-02T12:40:32.383Z,26.14
2022-09-02T12:41:34.786Z,26.14
2022-09-02T12:42:37.545Z,26.14
2022-09-02T12:43:54.491Z,26.14
2022-09-02T12:45:13.844Z,26.14
2022-09-02T12:46:46.167Z,26.16
2022-09-02T12:47:52.549Z,26.16
2022-09-02T12:49:11.221Z,26.16
2022-09-02T12:50:29.787Z,26.16
2022-09-02T12:51:55.359Z,26.17
2022-09-02T12:53:25.925Z,26.17
2022-09-02T12:54:41.064Z,26.17
2022-09-02T12:55:45.137Z,26.16
2022-09-02T12:58:09.951Z,26.27
2022-09-02T12:59:12.886Z,26.17
2022-09-02T13:03:25.143Z,26.18
2022-09-02T13:04:40.221Z,26.19
2022-09-02T13:07:27.084Z,26.32
2022-09-02T13:08:34.113Z,26.21
2022-09-02T13:09:55.187Z,26.25
2022-09-02T13:11:22.250Z,26.24
2022-09-02T13:13:04.338Z,26.25
2022-09-02T13:14:26.786Z,26.26
2022-09-02T13:15:49.555Z,26.27
2022-09-02T13:17:35.709Z,26.26
2022-09-02T13:18:49.225Z,26.25
2022-09-02T13:20:10.571Z,26.23
2022-09-02T13:21:36.321Z,26.22
2022-09-02T13:22:55.679Z,26.21
2022-09-02T13:24:13.591Z,26.20
2022-09-02T13:25:31.994Z,26.20
2022-09-02T13:26:59.117Z,26.20
2022-09-02T13:28:17.463Z,26.20
2022-09-02T13:31:14.851Z,26.32
2022-09-02T13:32:22.911Z,26.20
2022-09-02T13:33:25.305Z,26.21
2022-09-02T13:34:29.272Z,26.21
2022-09-02T13:35:31.704Z,26.22
2022-09-02T13:36:35.801Z,26.23
2022-09-02T13:37:40.301Z,26.25
2022-09-02T13:38:42.722Z,26.27
2022-09-02T13:39:45.261Z,26.29
2022-09-02T13:40:48.421Z,26.31
2022-09-02T13:41:51.829Z,26.32
2022-09-02T13:42:56.790Z,26.34
2022-09-02T13:44:06.815Z,26.35
2022-09-02T13:45:14.832Z,26.36
2022-09-02T13:46:18.651Z,26.37
2022-09-02T13:47:22.084Z,26.40
2022-09-02T13:48:31.224Z,26.41
2022-09-02T13:49:37.856Z,26.42
2022-09-02T13:50:44.674Z,26.43
2022-09-02T13:51:47.055Z,26.45
2022-09-02T13:54:25.023Z,26.56
2022-09-02T13:55:14.766Z,26.48
2022-09-02T13:56:20.312Z,26.48
2022-09-02T13:58:39.132Z,26.63
2022-09-02T14:01:02.542Z,26.64
2022-09-02T14:02:29.252Z,26.54
2022-09-02T14:03:31.752Z,26.56
2022-09-02T14:04:34.843Z,26.58
2022-09-02T14:05:38.590Z,26.59
2022-09-02T14:06:42.825Z,26.59
2022-09-02T14:07:51.158Z,26.60
2022-09-02T14:08:59.196Z,26.62
2022-09-02T14:10:04.793Z,26.63
2022-09-02T14:11:09.665Z,26.63
2022-09-02T14:12:11.559Z,26.64
2022-09-02T14:13:13.732Z,26.64
2022-09-02T14:14:19.093Z,26.63
2022-09-02T14:16:38.789Z,26.75
2022-09-02T14:17:41.607Z,26.65
2022-09-02T14:19:03.526Z,26.66
2022-09-02T14:20:22.222Z,26.66
2022-09-02T14:21:24.423Z,26.67
2022-09-02T14:22:27.563Z,26.67
2022-09-02T14:23:31.387Z,26.67
2022-09-02T14:24:39.699Z,26.65
2022-09-02T14:25:51.074Z,26.66
2022-09-02T14:26:55.177Z,26.67
2022-09-02T14:27:57.988Z,26.67
2022-09-02T14:29:00.182Z,26.67
2022-09-02T14:30:03.925Z,26.67
2022-09-02T14:31:08.192Z,26.67
2022-09-02T14:32:13.767Z,26.68
2022-09-02T14:33:29.290Z,26.68
2022-09-02T14:34:36.900Z,26.69
2022-09-02T14:35:39.491Z,26.69
2022-09-02T14:36:42.989Z,26.69
2022-09-02T14:39:14.276Z,26.81
2022-09-02T14:40:17.596Z,26.70
2022-09-02T14:41:22.900Z,26.71
2022-09-02T14:42:29.292Z,26.71
2022-09-02T14:43:52.067Z,26.72
2022-09-02T14:44:54.811Z,26.74
2022-09-02T14:46:01.711Z,26.76
2022-09-02T14:47:05.399Z,26.77
2022-09-02T14:48:19.353Z,26.78
2022-09-02T14:50:39.671Z,26.91
2022-09-02T14:51:47.469Z,26.82
2022-09-02T14:52:50.114Z,26.84
2022-09-02T14:53:52.388Z,26.84
2022-09-02T14:54:56.204Z,26.85
2022-09-02T14:55:58.512Z,26.87
2022-09-02T14:57:03.248Z,26.88
2022-09-02T14:58:05.478Z,26.85
2022-09-02T14:59:07.734Z,26.85
2022-09-02T15:00:11.992Z,26.93
2022-09-02T15:01:14.760Z,26.93
2022-09-02T15:02:30.931Z,26.94
2022-09-02T15:03:36.150Z,26.96
2022-09-02T15:04:38.971Z,26.96
2022-09-02T15:05:41.567Z,26.98
2022-09-02T15:06:44.193Z,26.97